Pt. Reyes RCA field Weather observations

Data are for 10 minute period ending at time listed.
 Day   Time   Solar   Ave.   Ave.  Ave.  Vector    Max.   Stn.   Total 
  of    of     Rad.   Air    Rel.  Wind   Wind     Wind   Baro. Precip.
Year   Day            Temp.  Hum.  Speed  Dir.     Gust   Pres.        
2016   (PST)   W/m2    F      %     mph   deg.      mph    mb.    in.  
-----------------------------------------------------------------------
 126   11:30  747.0    61   79.7     8    228.8    10.5   1007.8  0.00  
 126   11:40  386.0    58   87.6     9    242.2    11.8   1008.1  0.00  
 126   11:50  524.0    58   90.6     9    254.8    12.2   1008.1  0.00  
 126   12:00  375.0    57   89.9    10    255.5    12.3   1008.1  0.00  
 126   12:10  223.0    56   91.1     7    261.1    11.3   1008.5  0.00  
 126   12:20  229.0    56   91.1     6    266.6     9.0   1008.5  0.00  
 126   12:30  999.0   999  999.0   999    999.0   999.0    999.0 999.00  
 126   12:40  999.0   999  999.0   999    999.0   999.0    999.0 999.00  
 126   12:50  999.0   999  999.0   999    999.0   999.0    999.0 999.00  
 126   13:00  999.0   999  999.0   999    999.0   999.0    999.0 999.00  
 126   13:10  999.0   999  999.0   999    999.0   999.0    999.0 999.00  
 126   13:20  999.0   999  999.0   999    999.0   999.0    999.0 999.00  
 126   13:30  154.0    57   89.0     8    274.7    11.1   1008.1  0.00  
 126   13:40  166.0    56   89.7     6    291.3     9.1   1008.1  0.00  
 126   13:50  132.0    56   90.3     4    298.7     6.5   1008.1  0.00  
 126   14:00  157.0    56   89.8     4    311.1     5.3   1008.1  0.00  
 126   14:10  264.0    56   89.7     6    316.3     8.2   1008.5  0.00  
 126   14:20  207.0    56   90.2     7    324.1     9.2   1008.5  0.00  
 126   14:30  185.0    56   90.3     6    329.6     8.4   1008.5  0.00  
 126   14:40  232.0    56   89.8     6    319.2     7.9   1008.1  0.00  
 126   14:50  218.0    56   88.9     6    309.0     8.0   1008.1  0.00  
 126   15:00  197.0    56   89.0     6    301.9     8.7   1008.1  0.00  
 126   15:10  215.0    56   89.6     7    290.9     8.6   1008.1  0.00  
 126   15:20  270.0    56   89.7     6    293.3     8.6   1008.1  0.00  
 126   15:30  333.0    57   85.7     6    298.8     8.2   1008.1  0.00  
 126   15:40  485.0    58   80.9     6    303.7     7.5   1008.1  0.00  
 126   15:50  491.0    58   76.9     5    315.7     7.8   1007.8  0.00  
 126   16:00  270.0    59   75.0     6    334.7     8.6   1008.1  0.00  
 126   16:10  222.0    59   76.0     5    346.1     7.0   1008.1  0.00  
 126   16:20  358.0    58   77.2     6    352.6     7.9   1007.8  0.00  
 126   16:30  386.0    59   75.7     2    348.2     4.2   1007.8  0.00  
 126   16:40  241.0    60   73.6     1    313.2     4.9   1007.8  0.00  
 126   16:50  240.0    60   73.4     1    219.9     4.4   1007.8  0.00  
 126   17:00  313.0    61   72.9     1     91.2     3.7   1007.8  0.00  
 126   17:10  315.0    61   71.4     4    322.1     7.3   1007.8  0.00  
 126   17:20  275.0    60   72.6     5    329.0     7.6   1007.8  0.00  
 126   17:30  265.0    60   73.5     5    321.9     6.8   1007.8  0.00  
 126   17:40  217.0    59   75.8     9    312.4    13.7   1007.8  0.00  
 126   17:50  188.0    57   81.6     7    313.1     8.9   1007.8  0.00  
 126   18:00  172.0    57   81.8     6    316.1     7.5   1007.8  0.00  
 126   18:10  147.0    57   79.8     6    312.0     7.3   1007.8  0.00  
 126   18:20  110.0    57   80.4     6    314.8     8.1   1007.8  0.00  
 126   18:30   62.0    56   83.4     6    320.1     6.9   1008.1  0.00  
 126   18:40   35.0    55   86.9     7    317.6     8.0   1007.8  0.00  
 126   18:50   19.0    54   89.2     6    319.5     8.0   1007.8  0.00  
 126   19:00    9.0    53   90.4     8    319.2     9.2   1007.8  0.00  
 126   19:10    3.0    53   91.4     7    324.3     9.9   1008.1  0.00  
 126   19:20    3.0    52   92.0     5    331.6     6.9   1008.1  0.00  
 126   19:30    0.0    52   92.6     5    330.7     6.5   1008.1  0.00  
 126   19:40    0.0    52   93.1     5    328.6     6.4   1008.1  0.00  
 126   19:50    0.0    51   93.7     6    328.6     6.7   1008.1  0.00  
 126   20:00    0.0    51   94.0     5    338.2     6.6   1008.1  0.00  
 126   20:10    0.0    51   94.6     5    344.6     6.1   1008.1  0.00  
 126   20:20    0.0    51   94.7     6    343.2     7.5   1008.1  0.00  
 126   20:30    0.0    51   94.7     6    337.5     8.0   1008.1  0.00  
 126   20:40    0.0    50   94.9     5    330.1     6.9   1008.1  0.00  
 126   20:50    0.0    50   95.1     5    314.3     7.0   1008.1  0.00  
 126   21:00    0.0    51   95.8     6    302.8     8.3   1008.1  0.00  
 126   21:10    0.0    51   95.5     6    317.5     8.2   1008.5  0.00  
 126   21:20    0.0    50   95.7     5    317.9     6.9   1008.5  0.00  
 126   21:30    0.0    51   96.3     6    310.5     7.7   1008.1  0.00  
 126   21:40    0.0    52   96.6     6    312.6     7.8   1008.5  0.00  
 126   21:50    0.0    52   96.6     7    311.2     9.5   1008.5  0.00  
 126   22:00    0.0    52   96.6     7    311.6     9.5   1008.5  0.00  
 126   22:10    0.0    52   96.5     5    314.8     7.5   1008.5  0.00  
 126   22:20    0.0    51   96.5     4    310.2     6.1   1008.5  0.00  
 126   22:30    0.0    51   96.6     5    314.5     6.2   1008.5  0.00  
 126   22:40    0.0    50   96.7     4    329.7     5.8   1008.5  0.00  
 126   22:50    0.0    50   96.9     2      2.9     3.6   1008.1  0.00  
 126   23:00    0.0    51   97.1     3     22.5     4.7   1008.1  0.00  
 126   23:10    0.0    51   97.1     3    345.5     3.9   1008.1  0.00  
 126   23:20    0.0    50   96.9     1      8.9     2.8   1008.1  0.00  
 126   23:30    0.0    50   97.0     1    355.6     2.2   1008.1  0.00  
 126   23:40    0.0    51   97.2     2      6.6     4.2   1008.1  0.00  
 126   23:50    0.0    50   97.0     6    300.7     8.2   1008.1  0.00  
 127    0:00    0.0    51   97.4     7    301.4     8.4   1008.1  0.00  
 127    0:10    0.0    51   97.3     5    323.4     6.0   1008.1  0.00  
 127    0:20    0.0    50   97.2     5    317.1     5.7   1008.1  0.00  
 127    0:30    0.0    50   97.4     4    314.8     4.6   1007.8  0.00  
 127    0:40    0.0    51   97.5     4    307.1     5.6   1007.8  0.00  
 127    0:50    0.0    51   97.4     5    292.8     6.5   1007.5  0.00  
 127    1:00    0.0    50   97.3     3    300.7     4.8   1007.5  0.00  
 127    1:10    0.0    50   97.4     4    304.6     5.8   1007.5  0.00  
 127    1:20    0.0    49   97.2     4    300.5     6.1   1007.5  0.00  
 127    1:30    0.0    49   97.4     4    296.6     6.1   1007.5  0.00  
 127    1:40    0.0    50   97.5     2    267.2     4.9   1007.5  0.00  
 127    1:50    0.0    50   97.6     1    264.6     2.3   1007.1  0.00  
 127    2:00    0.0    51   97.7     3    292.6     5.2   1007.1  0.00  
 127    2:10    0.0    52   97.8     4    294.6     4.9   1007.1  0.00  
 127    2:20    0.0    52   97.7     3    292.8     3.7   1007.1  0.00  
 127    2:30    0.0    52   97.6     1    249.6     2.6   1007.1  0.00  
 127    2:40    0.0    52   97.6     3    262.7     4.7   1007.1  0.00  
 127    2:50    0.0    52   97.6     5    288.4     7.8   1007.1  0.00  
 127    3:00    0.0    52   97.6     6    290.1     8.2   1007.1  0.00  
 127    3:10    0.0    52   97.5     6    294.7     8.4   1007.1  0.00  
 127    3:20    0.0    52   97.4     6    293.2     8.7   1006.8  0.00  
 127    3:30    0.0    52   97.5     5    296.5     8.9   1006.8  0.00  
 127    3:40    0.0    52   97.5     6    304.2    10.4   1006.8  0.00  
 127    3:50    0.0    52   97.5     8    307.9    13.2   1006.8  0.00  
 127    4:00    0.0    52   97.4     8    308.5    11.4   1006.8  0.00  
 127    4:10    0.0    52   97.3     8    312.5    11.3   1006.4  0.00  
 127    4:20    0.0    52   97.3     7    309.6    11.2   1006.4  0.00  
 127    4:30    0.0    52   97.2     5    305.2     7.2   1006.4  0.00  
 127    4:40    0.0    52   97.2     4    297.4     6.5   1006.8  0.00  
 127    4:50    0.0    52   97.3     4    295.1     5.5   1006.8  0.00  
 127    5:00    0.0    52   97.2     6    293.6     9.1   1006.8  0.00  
 127    5:10    0.0    52   97.2     6    284.8     8.4   1006.8  0.00  
 127    5:20    3.0    52   97.2     7    306.1     9.9   1006.8  0.00  
 127    5:30    4.0    52   97.2     7    314.4    10.0   1006.8  0.00  
 127    5:40    7.0    52   97.2     7    305.4     9.5   1006.8  0.00  
 127    5:50    8.0    51   97.1     7    312.2    10.6   1007.1  0.00  
 127    6:00   10.0    51   97.1     6    303.2     7.3   1006.8  0.00  
 127    6:10   14.0    51   97.1     7    293.4    10.0   1006.8  0.00  
 127    6:20   24.0    51   97.1     8    297.3    11.8   1006.8  0.00  
 127    6:30   27.0    51   96.9     9    290.1    12.0   1006.8  0.00  
 127    6:40   23.0    52   96.8     9    292.1    12.9   1006.8  0.00  
 127    6:50   34.0    52   96.7     8    296.3    10.2   1006.8  0.00  
 127    7:00   41.0    52   96.6     8    300.9    13.8   1006.8  0.00  
 127    7:10   63.0    52   96.4    10    299.0    14.0   1006.8  0.00  
 127    7:20   66.0    52   96.3    10    296.2    12.6   1006.8  0.00  
 127    7:30   78.0    52   96.1     9    302.9    11.4   1006.8  0.00  
 127    7:40   85.0    52   96.0     8    300.0    10.2   1006.8  0.00  
 127    7:50   88.0    52   95.9     7    299.0     9.6   1006.8  0.00  
 127    8:00  107.0    52   95.9     6    299.9     8.2   1006.8  0.00  
 127    8:10  155.0    52   95.7     5    279.9     7.2   1006.8  0.00  
 127    8:20  165.0    52   95.7     4    278.3     6.0   1006.8  0.00  
 127    8:30  153.0    52   95.5     5    297.0     7.3   1007.1  0.00  
 127    8:40  123.0    52   95.3     4    274.4     6.5   1006.8  0.00  
 127    8:50  130.0    52   95.1     4    265.6     6.4   1006.8  0.00  
 127    9:00  112.0    52   95.0     4    259.8     5.5   1007.1  0.00  
 127    9:10   72.0    52   94.8     4    273.1     5.8   1007.1  0.00  
 127    9:20   60.0    52   94.9     4    289.2     5.5   1007.5  0.00  
 127    9:30   62.0    52   94.8     3    303.9     5.1   1007.5  0.00  
 127    9:40   74.0    52   94.8     4    308.3     5.3   1007.5  0.00  
 127    9:50   83.0    52   94.7     5    288.3     6.6   1007.5  0.00  
 127   10:00   75.0    52   94.9     5    285.3     6.5   1007.8  0.00  
 127   10:10   92.0    52   95.0     3    290.2     4.9   1007.8  0.00  
 127   10:20  120.0    52   94.9     1    267.2     2.7   1007.8  0.01  
 127   10:30  149.0    53   94.8     4    219.7     7.2   1007.5  0.00  
 127   10:40  158.0    53   94.3     4    224.6     6.1   1007.5  0.00  
 127   10:50  240.0    53   94.1     5    220.4     7.0   1007.5  0.01  
 127   11:00  330.0    54   93.8     6    194.0     8.4   1007.1  0.01  
 127   11:10  300.0    54   94.0     8    216.7     9.6   1007.1  0.01  
 127   11:20  250.0    54   93.7     6    243.8     9.7   1007.1  0.00  

Return to Pt. Reyes graphs page.


Western Regional Climate Center,wrcc@dri.edu